AU-0031 weather

CLOSED Avon Valley NP Airstrip
Western Australia, Australia

Public forecast

Using degrees Celsius for public forecast. Weather courtesy of forecast.io.

METAR (pilot weather report)

Closest report is RAAF Base Pearce, 13.1 nm (24.3 km) WSW. Retrieved 2019/04/20 20:30 UTC (39 seconds ago):

YPEA 202030Z AUTO 22003KT 9999 // NCD 07/04 Q1027

TAF (pilot weather forecast)

Closest forecast is RAAF Base Pearce, 13.1 nm (24.3 km) WSW. Retrieved 2019/04/20 18:00 UTC (3 hours ago):

TAF YPEA 201638Z 2018/2112 VRB03KT CAVOK FM210000 07007KT CAVOK